createdAt,value
2023-04-21T00:00:53.828Z,100677.09
2023-04-21T00:03:22.186Z,100714.19
2023-04-21T00:05:49.635Z,100605.72
2023-04-21T00:08:16.658Z,100716.22
2023-04-21T00:10:43.912Z,100704.09
2023-04-21T00:13:10.788Z,100682.50
2023-04-21T00:15:37.249Z,100616.84
2023-04-21T00:18:03.935Z,100702.22
2023-04-21T00:20:31.466Z,100643.38
2023-04-21T00:22:59.034Z,100715.41
2023-04-21T00:25:25.928Z,100704.00
2023-04-21T00:27:52.281Z,100632.47
2023-04-21T00:30:18.649Z,100646.00
2023-04-21T00:32:45.167Z,100668.34
2023-04-21T00:35:11.607Z,100680.28
2023-04-21T00:37:38.047Z,100684.47
2023-04-21T00:40:05.147Z,100636.13
2023-04-21T00:42:31.656Z,100679.91
2023-04-21T00:44:57.978Z,100633.28
2023-04-21T00:47:25.369Z,100591.94
2023-04-21T00:49:52.150Z,100672.78
2023-04-21T00:52:19.269Z,100655.66
2023-04-21T00:54:46.311Z,100648.69
2023-04-21T00:57:13.196Z,100626.06
2023-04-21T00:59:39.593Z,100653.69
2023-04-21T01:02:06.102Z,100636.47
2023-04-21T01:04:37.009Z,100542.50
2023-04-21T01:07:05.024Z,100669.06
2023-04-21T01:09:32.034Z,100556.94
2023-04-21T01:12:05.677Z,100598.19
2023-04-21T01:14:32.163Z,100608.53
2023-04-21T01:16:59.161Z,100527.50
2023-04-21T01:19:28.577Z,100662.91
2023-04-21T01:21:57.523Z,100587.88
2023-04-21T01:24:27.395Z,100636.22
2023-04-21T01:26:53.816Z,100665.81
2023-04-21T01:29:20.391Z,100599.09
2023-04-21T01:31:48.062Z,100598.41
2023-04-21T01:34:14.565Z,100626.69
2023-04-21T01:36:41.212Z,100533.69
2023-04-21T01:39:07.598Z,100615.28
2023-04-21T01:41:34.032Z,100643.03
2023-04-21T01:44:01.040Z,100542.38
2023-04-21T01:46:27.867Z,100622.38
2023-04-21T01:48:54.354Z,100589.31
2023-04-21T01:51:20.723Z,100586.22
2023-04-21T01:53:47.055Z,100622.97
2023-04-21T01:56:14.980Z,100663.50
2023-04-21T01:58:41.394Z,100622.13
2023-04-21T02:01:07.786Z,100594.44
2023-04-21T02:03:34.421Z,100625.44
2023-04-21T02:06:01.022Z,100649.72
2023-04-21T02:08:27.351Z,100607.44
2023-04-21T02:10:53.670Z,100627.22
2023-04-21T02:13:20.098Z,100605.91
2023-04-21T02:15:46.478Z,100587.81
2023-04-21T02:18:13.305Z,100649.81
2023-04-21T02:20:39.846Z,100639.41
2023-04-21T02:23:06.241Z,100555.09
2023-04-21T02:25:32.842Z,100627.34
2023-04-21T02:27:59.263Z,100625.56
2023-04-21T02:30:26.043Z,100555.94
2023-04-21T02:32:52.479Z,100629.13
2023-04-21T02:35:18.907Z,100502.41
2023-04-21T02:37:45.329Z,100542.97
2023-04-21T02:40:12.393Z,100523.94
2023-04-21T02:42:38.764Z,100646.06
2023-04-21T02:45:05.763Z,100528.13
2023-04-21T02:47:32.211Z,100548.09
2023-04-21T02:49:58.572Z,100621.31
2023-04-21T02:52:24.902Z,100629.06
2023-04-21T02:54:51.246Z,100604.16
2023-04-21T02:57:17.569Z,100611.06
2023-04-21T02:59:43.984Z,100594.03
2023-04-21T03:02:10.420Z,100586.41
2023-04-21T03:04:37.803Z,100515.00
2023-04-21T03:07:04.269Z,100595.03
2023-04-21T03:09:30.718Z,100627.03
2023-04-21T03:11:57.126Z,100609.97
2023-04-21T03:14:23.494Z,100526.63
2023-04-21T03:16:49.968Z,100617.97
2023-04-21T03:19:16.542Z,100600.06
2023-04-21T03:21:42.972Z,100518.34
2023-04-21T03:24:09.360Z,100561.56
2023-04-21T03:26:35.755Z,100620.97
2023-04-21T03:29:02.159Z,100477.31
2023-04-21T03:31:28.742Z,100612.50
2023-04-21T03:33:55.248Z,100587.63
2023-04-21T03:36:21.595Z,100659.31
2023-04-21T03:38:48.138Z,100641.41
2023-04-21T03:41:14.558Z,100598.19
2023-04-21T03:43:40.977Z,100611.94
2023-04-21T03:46:07.362Z,100536.13
2023-04-21T03:48:33.972Z,100530.81
2023-04-21T03:51:00.407Z,100527.25
2023-04-21T03:53:26.783Z,100564.25
2023-04-21T03:55:53.198Z,100603.78
2023-04-21T03:58:19.548Z,100615.81
2023-04-21T04:00:45.931Z,100580.59
2023-04-21T04:03:12.423Z,100529.25
2023-04-21T04:05:38.973Z,100580.69
2023-04-21T04:08:06.463Z,100536.09
2023-04-21T04:10:32.854Z,100604.25
2023-04-21T04:12:59.214Z,100646.53
2023-04-21T04:15:25.773Z,100543.19
2023-04-21T04:17:52.183Z,100496.78
2023-04-21T04:20:18.590Z,100612.19
2023-04-21T04:22:46.612Z,100621.69
2023-04-21T04:25:14.953Z,100526.88
2023-04-21T04:27:41.396Z,100518.22
2023-04-21T04:30:08.115Z,100498.38
2023-04-21T04:32:34.647Z,100529.38
2023-04-21T04:35:01.194Z,100609.38
2023-04-21T04:37:28.059Z,100593.03
2023-04-21T04:39:54.527Z,100541.50
2023-04-21T04:42:20.869Z,100601.59
2023-04-21T04:44:47.487Z,100618.72
2023-04-21T04:47:14.010Z,100524.28
2023-04-21T04:49:40.480Z,100632.56
2023-04-21T04:52:06.973Z,100514.66
2023-04-21T04:54:33.429Z,100538.75
2023-04-21T04:56:59.875Z,100633.34
2023-04-21T04:59:27.095Z,100625.56
2023-04-21T05:01:54.805Z,100634.25
2023-04-21T05:04:21.867Z,100589.53
2023-04-21T05:06:48.595Z,100624.78
2023-04-21T05:09:16.162Z,100617.19
2023-04-21T05:11:42.520Z,100515.34
2023-04-21T05:14:08.955Z,100541.34
2023-04-21T05:16:35.487Z,100651.47
2023-04-21T05:19:02.551Z,100649.69
2023-04-21T05:21:29.163Z,100623.69
2023-04-21T05:23:56.514Z,100504.81
2023-04-21T05:26:23.494Z,100620.28
2023-04-21T05:28:50.139Z,100616.00
2023-04-21T05:31:16.669Z,100646.06
2023-04-21T05:33:43.145Z,100647.03
2023-04-21T05:36:10.299Z,100585.09
2023-04-21T05:38:37.911Z,100610.06
2023-04-21T05:41:04.839Z,100617.06
2023-04-21T05:43:34.731Z,100599.75
2023-04-21T05:46:01.954Z,100646.31
2023-04-21T05:48:31.329Z,100663.72
2023-04-21T05:50:57.658Z,100630.81
2023-04-21T05:53:24.613Z,100613.50
2023-04-21T05:55:50.934Z,100632.47
2023-04-21T05:58:17.378Z,100667.97
2023-04-21T06:00:43.799Z,100651.34
2023-04-21T06:03:10.462Z,100642.81
2023-04-21T06:05:37.129Z,100606.56
2023-04-21T06:08:03.671Z,100621.91
2023-04-21T06:10:30.853Z,100583.84
2023-04-21T06:12:57.233Z,100548.41
2023-04-21T06:15:23.618Z,100613.06
2023-04-21T06:17:55.109Z,100590.63
2023-04-21T06:20:21.700Z,100607.75
2023-04-21T06:22:48.168Z,100623.94
2023-04-21T06:25:16.878Z,100633.34
2023-04-21T06:27:45.446Z,100462.94
2023-04-21T06:30:12.460Z,100638.47
2023-04-21T06:32:38.910Z,100623.78
2023-04-21T06:35:05.829Z,100647.88
2023-04-21T06:37:32.198Z,100621.06
2023-04-21T06:39:58.570Z,100559.00
2023-04-21T06:42:24.927Z,100595.66
2023-04-21T06:44:51.246Z,100649.81
2023-04-21T06:47:17.742Z,100558.31
2023-04-21T06:49:44.237Z,100532.25
2023-04-21T06:52:11.491Z,100605.28
2023-04-21T06:54:38.288Z,100538.22
2023-04-21T06:57:04.712Z,100592.91
2023-04-21T06:59:31.192Z,100627.28
2023-04-21T07:01:57.551Z,100632.22
2023-04-21T07:04:24.015Z,100642.56
2023-04-21T07:06:50.490Z,100541.97
2023-04-21T07:09:17.144Z,100560.78
2023-04-21T07:11:43.618Z,100593.09
2023-04-21T07:14:10.909Z,100497.53
2023-04-21T07:16:37.325Z,100617.28
2023-04-21T07:19:03.822Z,100655.13
2023-04-21T07:21:31.913Z,100649.69
2023-04-21T07:23:58.792Z,100615.78
2023-04-21T07:26:25.233Z,100620.25
2023-04-21T07:28:52.726Z,100640.88
2023-04-21T07:31:19.199Z,100586.50
2023-04-21T07:33:45.839Z,100495.94
2023-04-21T07:36:12.389Z,100602.34
2023-04-21T07:38:43.050Z,100488.06
2023-04-21T07:41:13.373Z,100606.44
2023-04-21T07:43:40.414Z,100495.91
2023-04-21T07:46:07.418Z,100623.00
2023-04-21T07:48:33.899Z,100609.97
2023-04-21T07:51:03.319Z,100604.03
2023-04-21T07:53:30.547Z,100551.09
2023-04-21T07:55:56.959Z,100610.22
2023-04-21T07:58:23.364Z,100555.63
2023-04-21T08:00:49.950Z,100639.81
2023-04-21T08:03:16.437Z,100554.75
2023-04-21T08:05:43.250Z,100629.00
2023-04-21T08:08:09.744Z,100597.19
2023-04-21T08:10:36.236Z,100630.97
2023-04-21T08:13:06.158Z,100620.38
2023-04-21T08:15:34.538Z,100562.59
2023-04-21T08:18:01.415Z,100563.66
2023-04-21T08:20:27.888Z,100599.41
2023-04-21T08:22:54.387Z,100552.84
2023-04-21T08:25:20.923Z,100598.72
2023-04-21T08:27:47.443Z,100539.38
2023-04-21T08:30:14.310Z,100584.59
2023-04-21T08:32:40.752Z,100620.28
2023-04-21T08:35:07.479Z,100606.88
2023-04-21T08:37:36.740Z,100471.81
2023-04-21T08:40:04.751Z,100601.38
2023-04-21T08:42:31.332Z,100598.16
2023-04-21T08:44:57.750Z,100595.53
2023-04-21T08:47:24.341Z,100608.78
2023-04-21T08:49:51.824Z,100591.97
2023-04-21T08:52:18.251Z,100506.97
2023-04-21T08:54:44.690Z,100586.00
2023-04-21T08:59:41.369Z,100492.59
2023-04-21T09:02:09.687Z,100605.50
2023-04-21T09:04:43.749Z,100593.16
2023-04-21T09:07:10.856Z,100616.75
2023-04-21T09:09:57.593Z,100620.84
2023-04-21T09:12:24.330Z,100617.69
2023-04-21T09:14:51.331Z,100592.50
2023-04-21T09:17:18.920Z,100601.59
2023-04-21T09:19:45.393Z,100581.97
2023-04-21T09:22:18.716Z,100599.72
2023-04-21T09:25:02.356Z,100621.22
2023-04-21T09:27:28.941Z,100581.16
2023-04-21T09:29:55.477Z,100573.81
2023-04-21T09:32:21.957Z,100496.22
2023-04-21T09:34:49.411Z,100594.28
2023-04-21T09:37:18.184Z,100509.13
2023-04-21T09:39:57.348Z,100508.78
2023-04-21T09:42:32.002Z,100559.09
2023-04-21T09:45:14.130Z,100593.47
2023-04-21T09:47:51.271Z,100580.03
2023-04-21T09:50:39.239Z,100590.72
2023-04-21T09:53:10.178Z,100557.97
2023-04-21T09:55:36.810Z,100563.47
2023-04-21T09:58:06.889Z,100589.56
2023-04-21T10:00:39.112Z,100546.91
2023-04-21T10:03:10.563Z,100492.13
2023-04-21T10:05:42.802Z,100560.81
2023-04-21T10:08:11.718Z,100536.38
2023-04-21T10:10:39.519Z,100574.28
2023-04-21T10:13:06.133Z,100579.22
2023-04-21T10:15:40.088Z,100507.88
2023-04-21T10:18:22.994Z,100550.88
2023-04-21T10:21:03.323Z,100570.06
2023-04-21T10:23:46.365Z,100567.56
2023-04-21T10:26:24.011Z,100453.72
2023-04-21T10:28:56.248Z,100549.25
2023-04-21T10:31:32.586Z,100553.94
2023-04-21T10:34:08.179Z,100544.50
2023-04-21T10:36:52.946Z,100548.13
2023-04-21T10:39:37.001Z,100540.50
2023-04-21T10:42:12.500Z,100530.72
2023-04-21T10:45:06.420Z,100523.72
2023-04-21T10:47:48.989Z,100510.06
2023-04-21T10:50:29.469Z,100493.50
2023-04-21T10:53:12.511Z,100433.84
2023-04-21T10:55:39.635Z,100470.72
2023-04-21T10:58:11.256Z,100491.47
2023-04-21T11:00:38.716Z,100457.81
2023-04-21T11:03:07.294Z,100477.72
2023-04-21T11:05:38.933Z,100467.56
2023-04-21T11:08:13.949Z,100464.22
2023-04-21T11:10:48.857Z,100475.13
2023-04-21T11:13:15.526Z,100382.28
2023-04-21T11:15:41.932Z,100458.00
2023-04-21T11:18:09.648Z,100479.31
2023-04-21T11:20:41.507Z,100466.28
2023-04-21T11:23:07.896Z,100446.03
2023-04-21T11:25:34.390Z,100460.88
2023-04-21T11:28:00.925Z,100445.72
2023-04-21T11:30:34.853Z,100445.72
2023-04-21T11:33:01.705Z,100442.13
2023-04-21T11:35:28.279Z,100442.03
2023-04-21T11:37:55.571Z,100448.78
2023-04-21T11:40:22.036Z,100446.97
2023-04-21T11:42:48.584Z,100395.38
2023-04-21T11:45:21.911Z,100396.09
2023-04-21T11:47:49.083Z,100408.25
2023-04-21T11:50:32.116Z,100402.91
2023-04-21T11:52:58.593Z,100388.19
2023-04-21T11:55:25.005Z,100392.78
2023-04-21T11:57:51.512Z,100362.34
2023-04-21T12:00:18.609Z,100391.41
2023-04-21T12:02:55.709Z,100376.25
2023-04-21T12:05:22.654Z,100363.94
2023-04-21T12:07:49.753Z,100397.66
2023-04-21T12:10:21.010Z,100406.06
2023-04-21T12:12:47.993Z,100377.59
2023-04-21T12:15:20.381Z,100371.31
2023-04-21T12:17:49.154Z,100375.22
2023-04-21T12:20:17.462Z,100395.34
2023-04-21T12:22:44.202Z,100384.63
2023-04-21T12:25:10.572Z,100366.47
2023-04-21T12:27:37.033Z,100349.94
2023-04-21T12:30:04.013Z,100380.78
2023-04-21T12:32:30.791Z,100357.66
2023-04-21T12:34:57.237Z,100287.44
2023-04-21T12:37:23.600Z,100371.09
2023-04-21T12:39:49.997Z,100285.09
2023-04-21T12:42:16.483Z,100280.41
2023-04-21T12:44:42.862Z,100336.16
2023-04-21T12:47:09.488Z,100343.44
2023-04-21T12:49:35.812Z,100320.81
2023-04-21T12:52:05.209Z,100338.38
2023-04-21T12:54:31.597Z,100314.16
2023-04-21T12:56:58.110Z,100309.84
2023-04-21T12:59:24.510Z,100261.97
2023-04-21T13:01:51.091Z,100325.66
2023-04-21T13:04:17.945Z,100332.81
2023-04-21T13:06:44.516Z,100326.84
2023-04-21T13:09:11.432Z,100298.97
2023-04-21T13:11:37.905Z,100345.06
2023-04-21T13:14:04.365Z,100333.88
2023-04-21T13:16:31.295Z,100306.47
2023-04-21T13:18:57.916Z,100316.16
2023-04-21T13:21:24.353Z,100305.25
2023-04-21T13:23:50.882Z,100312.13
2023-04-21T13:26:18.158Z,100320.59
2023-04-21T13:28:44.607Z,100305.09
2023-04-21T13:31:11.083Z,100307.25
2023-04-21T13:33:37.741Z,100240.34
2023-04-21T13:36:04.428Z,100298.69
2023-04-21T13:38:30.886Z,100203.59
2023-04-21T13:40:57.480Z,100207.81
2023-04-21T13:43:24.345Z,100268.16
2023-04-21T13:45:52.253Z,100303.44
2023-04-21T13:48:23.498Z,100290.56
2023-04-21T13:50:51.012Z,100229.63
2023-04-21T13:53:19.292Z,100253.63
2023-04-21T13:55:47.438Z,100264.56
2023-04-21T13:58:15.683Z,100218.53
2023-04-21T14:00:42.107Z,100254.72
2023-04-21T14:03:09.390Z,100255.78
2023-04-21T14:05:36.230Z,100236.03
2023-04-21T14:08:02.763Z,100235.44
2023-04-21T14:10:29.177Z,100255.72
2023-04-21T14:12:55.597Z,100251.69
2023-04-21T14:15:22.000Z,100159.94
2023-04-21T14:17:48.839Z,100236.16
2023-04-21T14:20:15.320Z,100222.06
2023-04-21T14:22:41.686Z,100214.78
2023-04-21T14:25:08.586Z,100227.97
2023-04-21T14:27:35.196Z,100206.41
2023-04-21T14:30:02.283Z,100229.72
2023-04-21T14:32:28.858Z,100177.78
2023-04-21T14:34:58.345Z,100177.03
2023-04-21T14:37:25.751Z,100146.44
2023-04-21T14:39:52.164Z,100154.28
2023-04-21T14:42:18.999Z,100229.19
2023-04-21T14:44:45.499Z,100221.59
2023-04-21T14:47:13.217Z,100130.72
2023-04-21T14:49:39.814Z,100221.53
2023-04-21T14:52:06.893Z,100178.47
2023-04-21T14:54:33.481Z,100205.84
2023-04-21T14:57:17.551Z,100167.34
2023-04-21T14:59:46.633Z,100166.63
2023-04-21T15:02:14.072Z,100167.00
2023-04-21T15:04:40.956Z,100191.09
2023-04-21T15:07:07.490Z,100153.53
2023-04-21T15:09:35.577Z,100151.34
2023-04-21T15:12:02.438Z,100174.06
2023-04-21T15:14:28.973Z,100182.81
2023-04-21T15:16:55.485Z,100194.47
2023-04-21T15:19:24.003Z,100192.56
2023-04-21T15:21:51.877Z,100093.38
2023-04-21T15:24:18.263Z,100179.25
2023-04-21T15:26:44.674Z,100138.56
2023-04-21T15:29:11.294Z,100142.84
2023-04-21T15:31:37.904Z,100167.31
2023-04-21T15:34:04.366Z,100168.31
2023-04-21T15:36:31.881Z,100148.91
2023-04-21T15:38:58.366Z,100166.47
2023-04-21T15:41:26.239Z,100139.16
2023-04-21T15:43:53.774Z,100167.66
2023-04-21T15:46:20.233Z,100137.56
2023-04-21T15:48:46.997Z,100137.22
2023-04-21T15:51:13.393Z,100151.19
2023-04-21T15:53:47.182Z,100135.13
2023-04-21T15:56:15.066Z,100138.22
2023-04-21T15:58:41.580Z,100098.22
2023-04-21T16:01:08.265Z,100156.00
2023-04-21T16:03:35.222Z,100133.59
2023-04-21T16:06:02.017Z,100175.41
2023-04-21T16:08:28.762Z,100219.22
2023-04-21T16:10:55.334Z,100246.34
2023-04-21T16:13:21.720Z,100256.34
2023-04-21T16:15:48.210Z,100189.94
2023-04-21T16:18:14.695Z,100210.56
2023-04-21T16:20:42.646Z,100213.53
2023-04-21T16:23:09.419Z,100208.38
2023-04-21T16:25:35.928Z,100152.69
2023-04-21T16:28:02.468Z,100156.66
2023-04-21T16:30:29.019Z,100188.50
2023-04-21T16:32:55.389Z,100158.00
2023-04-21T16:35:21.935Z,100181.56
2023-04-21T16:37:48.405Z,100156.88
2023-04-21T16:40:14.826Z,100094.41
2023-04-21T16:42:41.424Z,100161.41
2023-04-21T16:45:08.315Z,100167.91
2023-04-21T16:47:41.366Z,100186.81
2023-04-21T16:50:08.908Z,100117.56
2023-04-21T16:52:35.469Z,100070.97
2023-04-21T16:55:01.908Z,100160.03
2023-04-21T16:57:29.686Z,100097.41
2023-04-21T16:59:56.222Z,100073.69
2023-04-21T17:02:22.808Z,100113.44
2023-04-21T17:04:49.396Z,100120.97
2023-04-21T17:07:16.046Z,100062.22
2023-04-21T17:09:42.423Z,100069.44
2023-04-21T17:12:09.427Z,100092.13
2023-04-21T17:14:36.151Z,100071.47
2023-04-21T17:17:02.811Z,100132.91
2023-04-21T17:19:29.284Z,100124.88
2023-04-21T17:21:55.830Z,100099.50
2023-04-21T17:24:22.281Z,100137.53
2023-04-21T17:26:48.731Z,100008.41
2023-04-21T17:29:15.202Z,100123.31
2023-04-21T17:31:41.566Z,100114.13
2023-04-21T17:34:08.093Z,100097.69
2023-04-21T17:36:34.554Z,100110.88
2023-04-21T17:39:00.963Z,100099.94
2023-04-21T17:41:27.745Z,100111.63
2023-04-21T17:43:56.970Z,100116.13
2023-04-21T17:46:25.433Z,100060.03
2023-04-21T17:48:52.267Z,100104.06
2023-04-21T17:51:19.317Z,100122.84
2023-04-21T17:53:49.043Z,100042.03
2023-04-21T17:56:15.773Z,100052.66
2023-04-21T17:58:42.337Z,100076.28
2023-04-21T18:01:08.725Z,100102.09
2023-04-21T18:03:41.009Z,100073.91
2023-04-21T18:06:09.816Z,100111.72
2023-04-21T18:08:37.067Z,100095.00
2023-04-21T18:11:03.478Z,100007.09
2023-04-21T18:13:29.881Z,100002.91
2023-04-21T18:15:56.345Z,100101.06
2023-04-21T18:18:22.715Z,100109.13
2023-04-21T18:20:49.095Z,100010.09
2023-04-21T18:23:15.596Z,100113.19
2023-04-21T18:25:42.915Z,100037.56
2023-04-21T18:28:11.036Z,100125.75
2023-04-21T18:30:37.591Z,100005.38
2023-04-21T18:33:04.178Z,99983.13
2023-04-21T18:35:33.004Z,100108.84
2023-04-21T18:37:59.570Z,100123.06
2023-04-21T18:40:26.033Z,100051.81
2023-04-21T18:42:52.549Z,100118.78
2023-04-21T18:45:18.900Z,100116.44
2023-04-21T18:47:46.075Z,100062.22
2023-04-21T18:50:12.511Z,100055.16
2023-04-21T18:52:39.177Z,100061.31
2023-04-21T18:55:06.027Z,100105.69
2023-04-21T18:57:32.390Z,100121.22
2023-04-21T19:00:00.201Z,100034.88
2023-04-21T19:02:28.167Z,100161.03
2023-04-21T19:04:54.808Z,100184.44
2023-04-21T19:07:21.933Z,100179.34
2023-04-21T19:09:48.296Z,100194.31
2023-04-21T19:12:14.686Z,100213.13
2023-04-21T19:14:47.166Z,100206.19
2023-04-21T19:17:14.984Z,100233.06
2023-04-21T19:19:41.751Z,100118.97
2023-04-21T19:22:08.162Z,100194.91
2023-04-21T19:24:35.269Z,100224.38
2023-04-21T19:27:02.240Z,100205.44
2023-04-21T19:29:29.029Z,100178.16
2023-04-21T19:31:55.513Z,100069.31
2023-04-21T19:34:22.154Z,100199.88
2023-04-21T19:36:48.889Z,100187.34
2023-04-21T19:39:15.341Z,100084.13
2023-04-21T19:41:41.698Z,100076.47
2023-04-21T19:44:08.157Z,100121.06
2023-04-21T19:46:34.770Z,100169.56
2023-04-21T19:49:01.271Z,100173.91
2023-04-21T19:51:27.844Z,100135.63
2023-04-21T19:54:10.156Z,100151.28
2023-04-21T19:56:38.187Z,100190.69
2023-04-21T19:59:05.436Z,100158.94
2023-04-21T20:01:32.717Z,100149.63
2023-04-21T20:03:59.861Z,100190.09
2023-04-21T20:06:27.142Z,100167.31
2023-04-21T20:08:54.016Z,100199.56
2023-04-21T20:11:21.033Z,100183.81
2023-04-21T20:13:47.765Z,100169.00
2023-04-21T20:16:14.499Z,100208.00
2023-04-21T20:18:40.865Z,100174.91
2023-04-21T20:21:07.247Z,100208.66
2023-04-21T20:23:33.675Z,100152.06
2023-04-21T20:26:00.266Z,100140.69
2023-04-21T20:28:27.717Z,100205.53
2023-04-21T20:30:56.171Z,100110.63
2023-04-21T20:33:22.725Z,100193.13
2023-04-21T20:35:49.653Z,100197.25
2023-04-21T20:38:16.365Z,100065.63
2023-04-21T20:40:42.948Z,100133.13
2023-04-21T20:43:10.273Z,100219.25
2023-04-21T20:45:37.576Z,100195.50
2023-04-21T20:48:05.526Z,100207.00
2023-04-21T20:50:32.036Z,100105.53
2023-04-21T20:52:58.362Z,100152.31
2023-04-21T20:55:25.030Z,100201.91
2023-04-21T20:57:51.402Z,100194.09
2023-04-21T21:00:17.976Z,100109.66
2023-04-21T21:02:44.700Z,100080.78
2023-04-21T21:05:11.327Z,100159.25
2023-04-21T21:07:37.842Z,100109.75
2023-04-21T21:10:05.083Z,100098.13
2023-04-21T21:12:31.477Z,100088.03
2023-04-21T21:14:57.828Z,100162.63
2023-04-21T21:17:24.269Z,100155.56
2023-04-21T21:19:50.711Z,100111.16
2023-04-21T21:22:17.084Z,100105.44
2023-04-21T21:24:43.479Z,100041.91
2023-04-21T21:27:09.963Z,100168.16
2023-04-21T21:29:36.572Z,100164.63
2023-04-21T21:32:03.275Z,100162.06
2023-04-21T21:34:29.658Z,100058.06
2023-04-21T21:36:56.103Z,100177.13
2023-04-21T21:39:22.522Z,100157.19
2023-04-21T21:41:48.867Z,100162.06
2023-04-21T21:44:15.478Z,100026.44
2023-04-21T21:46:42.450Z,100159.16
2023-04-21T21:49:08.957Z,100076.78
2023-04-21T21:51:35.365Z,100110.81
2023-04-21T21:54:01.692Z,100140.28
2023-04-21T21:56:28.046Z,100153.34
2023-04-21T21:58:54.467Z,100047.88
2023-04-21T22:01:20.995Z,100016.28
2023-04-21T22:03:47.642Z,100130.06
2023-04-21T22:06:16.261Z,100101.88
2023-04-21T22:08:43.486Z,100124.09
2023-04-21T22:11:09.938Z,100128.56
2023-04-21T22:13:36.308Z,100115.56
2023-04-21T22:16:02.684Z,100130.81
2023-04-21T22:18:30.028Z,100099.94
2023-04-21T22:20:57.911Z,100124.84
2023-04-21T22:23:25.290Z,100138.66
2023-04-21T22:25:51.762Z,100090.00
2023-04-21T22:28:18.156Z,100110.22
2023-04-21T22:30:44.594Z,100082.47
2023-04-21T22:33:11.050Z,100013.63
2023-04-21T22:35:37.487Z,100161.50
2023-04-21T22:38:03.828Z,100122.53
2023-04-21T22:40:30.245Z,100126.19
2023-04-21T22:42:56.785Z,100094.03
2023-04-21T22:45:23.184Z,100104.97
2023-04-21T22:47:49.553Z,100167.34
2023-04-21T22:50:15.960Z,100156.97
2023-04-21T22:52:42.401Z,100149.84
2023-04-21T22:55:09.256Z,100136.66
2023-04-21T22:57:38.977Z,100137.38
2023-04-21T23:00:07.941Z,100149.34
2023-04-21T23:02:34.501Z,100130.50
2023-04-21T23:05:01.158Z,100154.53
2023-04-21T23:07:27.587Z,100129.47
2023-04-21T23:09:53.931Z,100146.56
2023-04-21T23:12:20.409Z,100093.34
2023-04-21T23:14:48.154Z,100110.25
2023-04-21T23:17:14.520Z,100126.59
2023-04-21T23:19:41.070Z,100136.88
2023-04-21T23:22:07.676Z,100127.94
2023-04-21T23:24:34.303Z,100155.94
2023-04-21T23:27:01.171Z,100046.63
2023-04-21T23:29:27.833Z,100106.09
2023-04-21T23:31:54.643Z,100028.56
2023-04-21T23:34:21.113Z,100137.38
2023-04-21T23:36:47.412Z,100047.81
2023-04-21T23:39:13.813Z,100118.50
2023-04-21T23:41:40.415Z,100152.72
2023-04-21T23:44:06.772Z,100040.47
2023-04-21T23:46:33.270Z,100135.38
2023-04-21T23:48:59.771Z,100129.19
2023-04-21T23:51:27.053Z,100121.13
2023-04-21T23:53:53.569Z,100109.59
2023-04-21T23:56:20.700Z,100159.69
2023-04-21T23:58:47.206Z,100047.47
